createdAt,value
2023-01-19T00:00:54.112Z,-0.97
2023-01-19T00:03:21.659Z,-1.01
2023-01-19T00:05:49.233Z,-1.00
2023-01-19T00:08:16.300Z,-0.97
2023-01-19T00:10:45.652Z,-1.02
2023-01-19T00:13:13.487Z,-1.04
2023-01-19T00:15:40.280Z,-1.03
2023-01-19T00:18:09.047Z,-1.00
2023-01-19T00:20:36.723Z,-1.04
2023-01-19T00:23:03.642Z,-1.06
2023-01-19T00:25:30.659Z,-1.05
2023-01-19T00:27:57.249Z,-1.07
2023-01-19T00:30:24.475Z,-1.06
2023-01-19T00:32:51.340Z,-1.07
2023-01-19T00:35:18.566Z,-1.04
2023-01-19T00:37:46.146Z,-1.04
2023-01-19T00:40:14.386Z,-1.06
2023-01-19T00:42:41.629Z,-1.02
2023-01-19T00:45:09.347Z,-1.01
2023-01-19T00:47:36.353Z,-1.07
2023-01-19T00:50:03.084Z,-1.01
2023-01-19T00:52:30.296Z,-1.05
2023-01-19T00:54:56.837Z,-0.99
2023-01-19T00:57:23.526Z,-1.00
2023-01-19T00:59:50.099Z,-1.01
2023-01-19T01:02:17.263Z,-0.98
2023-01-19T01:04:43.988Z,-0.93
2023-01-19T01:07:10.485Z,-0.95
2023-01-19T01:09:37.469Z,-0.90
2023-01-19T01:12:04.263Z,-0.87
2023-01-19T01:14:33.131Z,-0.83
2023-01-19T01:17:00.505Z,-0.81
2023-01-19T01:19:47.238Z,-0.77
2023-01-19T01:22:33.696Z,-0.78
2023-01-19T01:25:22.866Z,-0.83
2023-01-19T01:28:10.098Z,-0.79
2023-01-19T01:30:57.113Z,-0.74
2023-01-19T01:33:43.539Z,-0.70
2023-01-19T01:36:12.146Z,-0.66
2023-01-19T01:38:42.344Z,-0.63
2023-01-19T01:41:09.783Z,-0.59
2023-01-19T01:43:45.414Z,-0.63
2023-01-19T01:46:15.259Z,-0.65
2023-01-19T01:48:46.387Z,-0.65
2023-01-19T01:51:24.734Z,-0.64
2023-01-19T01:54:12.364Z,-0.64
2023-01-19T01:56:42.493Z,-0.64
2023-01-19T01:59:28.021Z,-0.65
2023-01-19T02:02:21.475Z,-0.65
2023-01-19T02:04:52.125Z,-0.62
2023-01-19T02:07:48.400Z,-0.67
2023-01-19T02:10:33.805Z,-0.65
2023-01-19T02:13:21.884Z,-0.67
2023-01-19T02:15:51.128Z,-0.65
2023-01-19T02:18:17.987Z,-0.68
2023-01-19T02:21:04.827Z,-0.68
2023-01-19T02:23:41.176Z,-0.64
2023-01-19T02:26:10.492Z,-0.69
2023-01-19T02:28:42.318Z,-0.72
2023-01-19T02:31:10.569Z,-0.70
2023-01-19T02:33:37.377Z,-0.63
2023-01-19T02:36:08.526Z,-0.61
2023-01-19T02:38:37.104Z,-0.60
2023-01-19T02:41:06.268Z,-0.57
2023-01-19T02:43:34.724Z,-0.60
2023-01-19T02:46:01.256Z,-0.58
2023-01-19T02:48:27.818Z,-0.61
2023-01-19T02:51:04.070Z,-0.56
2023-01-19T02:53:49.827Z,-0.60
2023-01-19T02:56:25.456Z,-0.60
2023-01-19T02:59:04.927Z,-0.57
2023-01-19T03:02:08.840Z,-0.59
2023-01-19T03:05:00.132Z,-0.60
2023-01-19T03:07:54.725Z,-0.58
2023-01-19T03:10:34.654Z,-0.61
2023-01-19T03:13:26.092Z,-0.59
2023-01-19T03:16:05.413Z,-0.65
2023-01-19T03:18:36.100Z,-0.61
2023-01-19T03:21:05.974Z,-0.64
2023-01-19T03:23:36.476Z,-0.58
2023-01-19T03:26:07.536Z,-0.60
2023-01-19T03:28:36.435Z,-0.56
2023-01-19T03:31:10.273Z,-0.56
2023-01-19T03:33:40.610Z,-0.54
2023-01-19T03:36:17.219Z,-0.54
2023-01-19T03:38:46.595Z,-0.55
2023-01-19T03:41:17.774Z,-0.58
2023-01-19T03:43:47.156Z,-0.56
2023-01-19T03:46:17.368Z,-0.52
2023-01-19T03:48:44.730Z,-0.55
2023-01-19T03:51:12.409Z,-0.47
2023-01-19T03:53:38.926Z,-0.47
2023-01-19T03:56:06.269Z,-0.44
2023-01-19T03:58:33.102Z,-0.37
2023-01-19T04:00:59.580Z,-0.37
2023-01-19T04:03:26.572Z,-0.37
2023-01-19T04:05:53.067Z,-0.38
2023-01-19T04:08:20.246Z,-0.32
2023-01-19T04:10:46.726Z,-0.41
2023-01-19T04:13:13.377Z,-0.38
2023-01-19T04:15:39.893Z,-0.35
2023-01-19T04:18:06.948Z,-0.33
2023-01-19T04:20:34.168Z,-0.38
2023-01-19T04:23:01.948Z,-0.31
2023-01-19T04:25:29.392Z,-0.32
2023-01-19T04:27:58.174Z,-0.34
2023-01-19T04:30:25.315Z,-0.40
2023-01-19T04:32:52.500Z,-0.41
2023-01-19T04:35:19.164Z,-0.37
2023-01-19T04:37:46.004Z,-0.39
2023-01-19T04:40:13.028Z,-0.39
2023-01-19T04:42:43.822Z,-0.47
2023-01-19T04:45:12.129Z,-0.50
2023-01-19T04:47:38.846Z,-0.50
2023-01-19T04:50:07.300Z,-0.58
2023-01-19T04:52:37.637Z,-0.55
2023-01-19T04:55:06.240Z,-0.58
2023-01-19T04:57:32.816Z,-0.59
2023-01-19T04:59:59.599Z,-0.57
2023-01-19T05:02:27.150Z,-0.57
2023-01-19T05:04:53.794Z,-0.56
2023-01-19T05:07:20.456Z,-0.55
2023-01-19T05:09:47.194Z,-0.53
2023-01-19T05:12:13.643Z,-0.50
2023-01-19T05:14:40.320Z,-0.50
2023-01-19T05:17:07.409Z,-0.51
2023-01-19T05:19:33.930Z,-0.48
2023-01-19T05:22:02.514Z,-0.52
2023-01-19T05:24:29.407Z,-0.46
2023-01-19T05:26:56.779Z,-0.54
2023-01-19T05:29:23.417Z,-0.55
2023-01-19T05:31:50.241Z,-0.58
2023-01-19T05:34:17.359Z,-0.58
2023-01-19T05:36:44.056Z,-0.63
2023-01-19T05:39:11.345Z,-0.60
2023-01-19T05:41:37.880Z,-0.63
2023-01-19T05:44:04.728Z,-0.62
2023-01-19T05:46:32.869Z,-0.64
2023-01-19T05:49:01.607Z,-0.60
2023-01-19T05:51:34.729Z,-0.63
2023-01-19T05:54:01.951Z,-0.63
2023-01-19T05:56:29.438Z,-0.59
2023-01-19T05:58:56.224Z,-0.59
2023-01-19T06:01:23.207Z,-0.65
2023-01-19T06:03:50.260Z,-0.62
2023-01-19T06:06:17.118Z,-0.67
2023-01-19T06:08:43.669Z,-0.64
2023-01-19T06:11:10.776Z,-0.65
2023-01-19T06:13:41.262Z,-0.63
2023-01-19T06:16:08.973Z,-0.69
2023-01-19T06:18:35.605Z,-0.64
2023-01-19T06:21:10.682Z,-0.66
2023-01-19T06:23:37.205Z,-0.72
2023-01-19T06:26:04.193Z,-0.71
2023-01-19T06:28:30.941Z,-0.65
2023-01-19T06:30:57.886Z,-0.68
2023-01-19T06:33:25.931Z,-0.63
2023-01-19T06:35:52.723Z,-0.65
2023-01-19T06:38:19.535Z,-0.63
2023-01-19T06:40:53.750Z,-0.58
2023-01-19T06:43:20.456Z,-0.55
2023-01-19T06:45:47.895Z,-0.53
2023-01-19T06:48:15.101Z,-0.48
2023-01-19T06:50:41.734Z,-0.45
2023-01-19T06:53:08.194Z,-0.47
2023-01-19T06:55:36.498Z,-0.45
2023-01-19T06:58:03.166Z,-0.49
2023-01-19T07:00:30.643Z,-0.47
2023-01-19T07:02:57.684Z,-0.42
2023-01-19T07:05:24.366Z,-0.41
2023-01-19T07:07:54.959Z,-0.42
2023-01-19T07:10:22.894Z,-0.36
2023-01-19T07:12:49.770Z,-0.36
2023-01-19T07:15:19.528Z,-0.33
2023-01-19T07:17:46.001Z,-0.29
2023-01-19T07:20:14.277Z,-0.27
2023-01-19T07:22:43.735Z,-0.25
2023-01-19T07:25:10.602Z,-0.26
2023-01-19T07:27:37.154Z,-0.21
2023-01-19T07:30:04.832Z,-0.19
2023-01-19T07:32:31.339Z,-0.12
2023-01-19T07:34:58.236Z,-0.12
2023-01-19T07:37:25.254Z,-0.13
2023-01-19T07:39:51.943Z,-0.10
2023-01-19T07:42:18.484Z,-0.16
2023-01-19T07:44:45.564Z,-0.08
2023-01-19T07:47:12.708Z,-0.04
2023-01-19T07:49:40.176Z,-0.05
2023-01-19T07:52:06.754Z,0.01
2023-01-19T07:54:33.907Z,0.04
2023-01-19T07:57:02.233Z,0.06
2023-01-19T07:59:30.257Z,0.04
2023-01-19T08:01:59.687Z,0.07
2023-01-19T08:04:29.569Z,0.07
2023-01-19T08:06:56.531Z,0.07
2023-01-19T08:09:24.493Z,0.03
2023-01-19T08:11:51.028Z,0.01
2023-01-19T08:14:17.740Z,0.07
2023-01-19T08:16:44.378Z,0.07
2023-01-19T08:19:12.692Z,-0.01
2023-01-19T08:21:39.516Z,0.01
2023-01-19T08:24:06.409Z,0.05
2023-01-19T08:26:35.093Z,0.00
2023-01-19T08:29:05.462Z,0.06
2023-01-19T08:31:32.171Z,0.04
2023-01-19T08:33:59.029Z,0.10
2023-01-19T08:36:25.593Z,0.06
2023-01-19T08:38:52.820Z,0.05
2023-01-19T08:41:19.388Z,0.12
2023-01-19T08:43:46.551Z,0.11
2023-01-19T08:46:17.747Z,0.17
2023-01-19T08:48:45.185Z,0.19
2023-01-19T08:51:12.782Z,0.21
2023-01-19T08:53:39.331Z,0.33
2023-01-19T08:56:12.353Z,0.33
2023-01-19T08:58:43.724Z,0.46
2023-01-19T09:01:17.163Z,0.35
2023-01-19T09:03:44.213Z,0.39
2023-01-19T09:06:13.016Z,0.39
2023-01-19T09:08:39.549Z,0.47
2023-01-19T09:11:11.206Z,0.49
2023-01-19T09:13:38.610Z,0.49
2023-01-19T09:16:07.812Z,0.52
2023-01-19T09:18:35.561Z,0.43
2023-01-19T09:21:02.931Z,0.46
2023-01-19T09:23:29.732Z,0.46
2023-01-19T09:25:59.427Z,0.44
2023-01-19T09:28:26.595Z,0.52
2023-01-19T09:30:53.234Z,0.54
2023-01-19T09:33:19.875Z,0.55
2023-01-19T09:35:48.763Z,0.46
2023-01-19T09:38:17.008Z,0.50
2023-01-19T09:40:48.437Z,0.53
2023-01-19T09:43:33.582Z,0.67
2023-01-19T09:46:21.765Z,0.70
2023-01-19T09:48:52.876Z,0.61
2023-01-19T09:51:23.776Z,0.71
2023-01-19T09:54:15.709Z,0.91
2023-01-19T09:56:44.540Z,0.84
2023-01-19T09:59:23.384Z,1.08
2023-01-19T10:02:03.272Z,1.19
2023-01-19T10:04:39.019Z,1.58
2023-01-19T10:07:20.185Z,1.54
2023-01-19T10:10:10.246Z,1.91
2023-01-19T10:13:03.757Z,1.72
2023-01-19T10:16:08.347Z,1.53
2023-01-19T10:18:51.748Z,1.54
2023-01-19T10:21:32.094Z,1.37
2023-01-19T10:24:26.300Z,1.23
2023-01-19T10:26:54.884Z,1.21
2023-01-19T10:29:25.875Z,1.28
2023-01-19T10:32:04.470Z,1.34
2023-01-19T10:34:31.332Z,1.62
2023-01-19T10:37:25.376Z,1.92
2023-01-19T10:39:55.396Z,2.04
2023-01-19T10:42:21.915Z,2.24
2023-01-19T10:44:50.106Z,2.13
2023-01-19T10:47:21.702Z,1.85
2023-01-19T10:49:49.533Z,1.95
2023-01-19T10:52:32.998Z,1.86
2023-01-19T10:55:02.739Z,1.86
2023-01-19T10:57:32.934Z,1.77
2023-01-19T10:59:59.458Z,1.89
2023-01-19T11:02:31.811Z,1.88
2023-01-19T11:05:22.941Z,1.80
2023-01-19T11:07:49.496Z,1.83
2023-01-19T11:10:15.912Z,1.81
2023-01-19T11:12:46.315Z,1.78
2023-01-19T11:15:16.391Z,1.84
2023-01-19T11:17:45.976Z,1.69
2023-01-19T11:20:21.376Z,1.80
2023-01-19T11:22:49.052Z,1.88
2023-01-19T11:25:28.653Z,1.90
2023-01-19T11:27:55.101Z,1.81
2023-01-19T11:30:25.420Z,1.83
2023-01-19T11:32:52.450Z,1.81
2023-01-19T11:35:34.675Z,1.84
2023-01-19T11:38:13.269Z,1.98
2023-01-19T11:40:42.118Z,1.90
2023-01-19T11:43:13.548Z,2.04
2023-01-19T11:45:40.723Z,2.05
2023-01-19T11:48:07.344Z,2.10
2023-01-19T11:50:53.322Z,2.10
2023-01-19T11:53:29.818Z,2.08
2023-01-19T11:56:08.238Z,2.00
2023-01-19T11:58:39.625Z,1.98
2023-01-19T12:01:24.420Z,1.86
2023-01-19T12:04:01.452Z,1.94
2023-01-19T12:06:34.627Z,1.83
2023-01-19T12:09:10.476Z,1.89
2023-01-19T12:11:44.806Z,1.92
2023-01-19T12:14:20.168Z,1.88
2023-01-19T12:16:47.050Z,1.91
2023-01-19T12:19:31.329Z,1.97
2023-01-19T12:21:58.698Z,1.85
2023-01-19T12:24:49.340Z,1.91
2023-01-19T12:27:40.471Z,1.85
2023-01-19T12:30:28.547Z,1.89
2023-01-19T12:33:35.024Z,1.81
2023-01-19T12:36:06.746Z,1.78
2023-01-19T12:38:35.569Z,1.82
2023-01-19T12:41:37.614Z,1.83
2023-01-19T12:44:16.427Z,1.79
2023-01-19T12:46:54.487Z,1.78
2023-01-19T12:49:27.558Z,1.86
2023-01-19T12:52:25.091Z,1.90
2023-01-19T12:55:02.568Z,1.88
2023-01-19T12:57:50.583Z,1.90
2023-01-19T13:00:23.544Z,2.02
2023-01-19T13:02:55.512Z,1.99
2023-01-19T13:05:32.854Z,1.92
2023-01-19T13:08:02.970Z,1.95
2023-01-19T13:11:02.030Z,2.03
2023-01-19T13:13:31.212Z,2.09
2023-01-19T13:16:20.079Z,2.04
2023-01-19T13:19:05.664Z,2.04
2023-01-19T13:21:45.847Z,2.10
2023-01-19T13:24:19.267Z,2.05
2023-01-19T13:26:48.910Z,2.16
2023-01-19T13:29:18.642Z,2.09
2023-01-19T13:31:48.812Z,2.10
2023-01-19T13:34:19.840Z,2.15
2023-01-19T13:36:50.871Z,2.16
2023-01-19T13:39:28.531Z,2.16
2023-01-19T13:42:00.501Z,2.15
2023-01-19T13:44:31.202Z,2.16
2023-01-19T13:46:59.820Z,2.21
2023-01-19T13:49:33.016Z,2.18
2023-01-19T13:52:13.749Z,2.17
2023-01-19T13:54:54.761Z,2.21
2023-01-19T13:57:32.200Z,2.21
2023-01-19T14:00:07.861Z,2.27
2023-01-19T14:02:42.112Z,2.23
2023-01-19T14:05:24.548Z,2.25
2023-01-19T14:08:12.955Z,2.35
2023-01-19T14:10:46.142Z,2.32
2023-01-19T14:13:20.847Z,2.36
2023-01-19T14:15:50.429Z,2.39
2023-01-19T14:18:17.000Z,2.38
2023-01-19T14:20:57.693Z,2.35
2023-01-19T14:23:40.036Z,2.37
2023-01-19T14:26:46.477Z,2.39
2023-01-19T14:29:34.450Z,2.33
2023-01-19T14:32:13.316Z,2.39
2023-01-19T14:34:50.132Z,2.38
2023-01-19T14:37:23.180Z,2.35
2023-01-19T14:39:58.169Z,2.39
2023-01-19T14:42:29.021Z,2.28
2023-01-19T14:44:57.196Z,2.37
2023-01-19T14:47:37.090Z,2.18
2023-01-19T14:50:09.377Z,2.21
2023-01-19T14:52:40.822Z,2.20
2023-01-19T14:55:20.035Z,2.21
2023-01-19T14:57:47.036Z,2.12
2023-01-19T15:00:19.697Z,2.19
2023-01-19T15:02:47.116Z,2.20
2023-01-19T15:05:14.430Z,2.14
2023-01-19T15:07:43.076Z,2.13
2023-01-19T15:10:17.984Z,2.10
2023-01-19T15:12:45.237Z,2.04
2023-01-19T15:15:17.258Z,2.05
2023-01-19T15:17:44.642Z,2.04
2023-01-19T15:20:18.236Z,1.99
2023-01-19T15:22:45.353Z,1.95
2023-01-19T15:25:17.995Z,2.03
2023-01-19T15:27:45.907Z,1.99
2023-01-19T15:30:18.619Z,2.01
2023-01-19T15:32:46.238Z,2.03
2023-01-19T15:35:18.713Z,1.92
2023-01-19T15:37:45.812Z,1.97
2023-01-19T15:40:12.899Z,1.97
2023-01-19T15:42:39.755Z,1.96
2023-01-19T15:45:18.563Z,1.99
2023-01-19T15:47:44.984Z,2.03
2023-01-19T15:50:11.393Z,1.99
2023-01-19T15:52:37.845Z,1.94
2023-01-19T15:55:04.827Z,1.94
2023-01-19T15:57:31.310Z,1.89
2023-01-19T15:59:58.659Z,1.84
2023-01-19T16:02:25.295Z,1.75
2023-01-19T16:04:52.237Z,1.66
2023-01-19T16:07:19.449Z,1.64
2023-01-19T16:09:46.442Z,1.70
2023-01-19T16:12:12.929Z,1.82
2023-01-19T16:14:41.192Z,1.76
2023-01-19T16:17:07.708Z,1.77
2023-01-19T16:19:34.383Z,1.73
2023-01-19T16:22:00.903Z,1.70
2023-01-19T16:24:27.716Z,1.53
2023-01-19T16:26:54.434Z,1.63
2023-01-19T16:29:21.181Z,1.65
2023-01-19T16:31:47.639Z,1.63
2023-01-19T16:34:14.460Z,1.46
2023-01-19T16:36:42.115Z,1.42
2023-01-19T16:39:11.643Z,1.53
2023-01-19T16:41:38.553Z,1.49
2023-01-19T16:44:05.379Z,1.42
2023-01-19T16:46:38.874Z,1.49
2023-01-19T16:49:11.161Z,1.52
2023-01-19T16:51:37.971Z,1.40
2023-01-19T16:54:04.849Z,1.42
2023-01-19T16:56:32.112Z,1.36
2023-01-19T16:58:59.645Z,1.35
2023-01-19T17:01:29.042Z,1.27
2023-01-19T17:03:56.193Z,1.35
2023-01-19T17:06:24.012Z,1.29
2023-01-19T17:08:51.944Z,1.24
2023-01-19T17:11:24.129Z,1.22
2023-01-19T17:13:56.723Z,1.23
2023-01-19T17:16:24.846Z,1.21
2023-01-19T17:18:51.715Z,1.15
2023-01-19T17:21:19.341Z,1.08
2023-01-19T17:23:48.298Z,1.10
2023-01-19T17:26:15.931Z,1.08
2023-01-19T17:28:43.384Z,1.08
2023-01-19T17:31:12.645Z,1.06
2023-01-19T17:33:40.353Z,1.05
2023-01-19T17:36:10.178Z,1.12
2023-01-19T17:38:37.144Z,1.09
2023-01-19T17:41:14.717Z,1.00
2023-01-19T17:43:41.898Z,1.05
2023-01-19T17:46:08.966Z,0.90
2023-01-19T17:48:35.475Z,0.86
2023-01-19T17:51:06.631Z,0.89
2023-01-19T17:53:35.520Z,0.90
2023-01-19T17:56:06.317Z,0.82
2023-01-19T17:58:33.639Z,0.94
2023-01-19T18:01:08.728Z,0.82
2023-01-19T18:03:35.514Z,0.93
2023-01-19T18:06:02.220Z,0.83
2023-01-19T18:08:29.274Z,0.84
2023-01-19T18:10:57.779Z,0.90
2023-01-19T18:13:24.888Z,0.92
2023-01-19T18:15:51.952Z,0.83
2023-01-19T18:18:18.416Z,0.85
2023-01-19T18:20:44.887Z,0.82
2023-01-19T18:23:12.031Z,0.85
2023-01-19T18:25:39.672Z,0.86
2023-01-19T18:28:07.137Z,0.93
2023-01-19T18:30:35.816Z,0.92
2023-01-19T18:33:02.994Z,0.88
2023-01-19T18:35:29.860Z,0.96
2023-01-19T18:37:58.974Z,0.98
2023-01-19T18:40:25.870Z,0.93
2023-01-19T18:42:52.293Z,0.96
2023-01-19T18:45:19.188Z,0.97
2023-01-19T18:47:45.742Z,0.95
2023-01-19T18:50:14.352Z,0.92
2023-01-19T18:52:41.455Z,1.01
2023-01-19T18:55:08.341Z,0.90
2023-01-19T18:57:35.669Z,0.82
2023-01-19T19:00:03.371Z,0.91
2023-01-19T19:02:29.933Z,0.91
2023-01-19T19:04:56.855Z,0.91
2023-01-19T19:07:23.418Z,0.98
2023-01-19T19:09:49.999Z,0.90
2023-01-19T19:12:16.488Z,0.95
2023-01-19T19:14:42.936Z,0.89
2023-01-19T19:17:09.413Z,0.93
2023-01-19T19:19:36.215Z,0.88
2023-01-19T19:22:03.159Z,0.84
2023-01-19T19:24:29.907Z,0.98
2023-01-19T19:26:56.884Z,0.99
2023-01-19T19:29:23.629Z,0.99
2023-01-19T19:31:50.233Z,1.05
2023-01-19T19:34:16.974Z,1.02
2023-01-19T19:36:43.570Z,1.01
2023-01-19T19:39:10.221Z,1.01
2023-01-19T19:41:38.709Z,0.98
2023-01-19T19:44:05.371Z,0.94
2023-01-19T19:46:31.903Z,0.96
2023-01-19T19:48:58.453Z,0.96
2023-01-19T19:51:27.455Z,0.99
2023-01-19T19:53:56.339Z,0.98
2023-01-19T19:56:24.325Z,0.85
2023-01-19T19:58:54.087Z,0.88
2023-01-19T20:01:26.971Z,0.87
2023-01-19T20:03:54.737Z,0.95
2023-01-19T20:06:23.215Z,0.97
2023-01-19T20:08:54.643Z,1.06
2023-01-19T20:11:24.079Z,1.08
2023-01-19T20:13:50.777Z,1.03
2023-01-19T20:16:19.740Z,1.03
2023-01-19T20:18:50.804Z,1.04
2023-01-19T20:21:25.298Z,0.99
2023-01-19T20:23:53.006Z,1.11
2023-01-19T20:26:25.254Z,1.05
2023-01-19T20:28:52.582Z,1.06
2023-01-19T20:31:22.515Z,1.05
2023-01-19T20:33:51.578Z,0.99
2023-01-19T20:36:19.206Z,1.06
2023-01-19T20:38:45.925Z,1.03
2023-01-19T20:41:13.350Z,1.05
2023-01-19T20:43:40.311Z,1.02
2023-01-19T20:46:07.333Z,1.02
2023-01-19T20:48:34.315Z,1.05
2023-01-19T20:51:08.682Z,1.08
2023-01-19T20:53:36.352Z,1.06
2023-01-19T20:56:08.468Z,1.04
2023-01-19T20:58:35.278Z,1.03
2023-01-19T21:01:11.956Z,1.02
2023-01-19T21:03:38.834Z,1.02
2023-01-19T21:06:05.850Z,1.00
2023-01-19T21:08:32.828Z,0.95
2023-01-19T21:10:59.496Z,0.92
2023-01-19T21:13:26.630Z,0.90
2023-01-19T21:15:53.773Z,0.87
2023-01-19T21:18:20.495Z,0.88
2023-01-19T21:20:49.993Z,0.85
2023-01-19T21:23:18.960Z,0.82
2023-01-19T21:25:51.133Z,0.81
2023-01-19T21:28:18.639Z,0.87
2023-01-19T21:30:46.245Z,0.82
2023-01-19T21:33:12.958Z,0.82
2023-01-19T21:35:40.040Z,0.86
2023-01-19T21:38:06.555Z,0.91
2023-01-19T21:40:33.586Z,0.85
2023-01-19T21:43:00.398Z,0.83
2023-01-19T21:45:26.912Z,0.84
2023-01-19T21:47:53.710Z,0.87
2023-01-19T21:50:20.739Z,0.87
2023-01-19T21:52:47.176Z,0.91
2023-01-19T21:55:13.806Z,0.87
2023-01-19T21:57:40.974Z,0.84
2023-01-19T22:00:10.138Z,0.76
2023-01-19T22:02:39.081Z,0.89
2023-01-19T22:05:06.531Z,0.88
2023-01-19T22:07:33.390Z,0.89
2023-01-19T22:09:59.867Z,0.88
2023-01-19T22:12:27.099Z,0.82
2023-01-19T22:14:53.676Z,0.90
2023-01-19T22:17:20.282Z,0.91
2023-01-19T22:19:48.244Z,0.89
2023-01-19T22:22:15.019Z,0.86
2023-01-19T22:24:46.401Z,0.91
2023-01-19T22:27:13.493Z,0.90
2023-01-19T22:29:40.224Z,0.90
2023-01-19T22:32:06.913Z,0.93
2023-01-19T22:34:33.593Z,0.92
2023-01-19T22:37:00.112Z,0.88
2023-01-19T22:39:27.368Z,0.84
2023-01-19T22:41:53.877Z,0.89
2023-01-19T22:44:21.851Z,0.89
2023-01-19T22:46:49.961Z,0.84
2023-01-19T22:49:17.997Z,0.85
2023-01-19T22:51:45.099Z,0.87
2023-01-19T22:54:12.702Z,0.88
2023-01-19T22:56:40.206Z,0.88
2023-01-19T22:59:07.388Z,0.86
2023-01-19T23:01:40.779Z,0.85
2023-01-19T23:04:10.664Z,0.90
2023-01-19T23:06:38.061Z,0.87
2023-01-19T23:09:08.250Z,0.85
2023-01-19T23:11:37.408Z,0.86
2023-01-19T23:14:06.830Z,0.86
2023-01-19T23:16:34.992Z,0.89
2023-01-19T23:19:02.307Z,0.84
2023-01-19T23:21:30.493Z,0.86
2023-01-19T23:23:59.339Z,0.88
2023-01-19T23:26:27.528Z,0.91
2023-01-19T23:28:59.500Z,0.86
2023-01-19T23:31:28.725Z,0.84
2023-01-19T23:33:57.591Z,0.88
2023-01-19T23:36:26.278Z,0.84
2023-01-19T23:38:56.409Z,0.86
2023-01-19T23:41:24.540Z,0.88
2023-01-19T23:43:51.838Z,0.85
2023-01-19T23:46:19.345Z,0.86
2023-01-19T23:48:46.578Z,0.83
2023-01-19T23:51:16.438Z,0.83
2023-01-19T23:53:43.576Z,0.84
2023-01-19T23:56:17.227Z,0.87
2023-01-19T23:58:48.784Z,0.85
